CJD2 weather

Cudworth Municipal Airport
Cudworth, Saskatchewan, Canada

Public forecast

Using degrees Celsius for public forecast. Weather courtesy of forecast.io.

METAR (pilot weather report)

Closest report is Saskatoon John G. Diefenbaker International Airport, 40.7 nm (75.3 km) WSW. Retrieved 2019/04/22 02:00 UTC (5 minutes ago):

CYXE 220200Z 01004KT 15SM FEW090 SCT300 09/M05 A3020 RMK AC2CI2 SLP247

TAF (pilot weather forecast)

Forecast is more than 12 hours old.

Closest forecast is Saskatoon John G. Diefenbaker International Airport, 40.7 nm (75.3 km) WSW. Retrieved 2019/04/21 00:51 UTC (1 day ago):

TAF CYXE 212348Z 2200/2224 30010G20KT P6SM SCT070 BECMG 2202/2204 36006KT SKC FM220600 09005KT P6SM FEW250 BECMG 2208/2210 14008KT FM221500 18010KT P6SM BKN200 FM221800 19020KT P6SM FEW120 BECMG 2219/2221 19028KT FM222300 21028KT P6SM SCT100 BKN240 RMK NXT FCST BY 220600Z